Flight Track Log - Related Links

Times and Time Zones

All times are in EDT time to prevent confusion due to time zone crossing. See the OPN20 flight status page for this flight to view local times or setup timezone preferences in your user account.

Time Position Orientation Groundspeed Altitude Reporting Facility
EDT Latitude Longitude Course Direction KTS MPH feet Rate Location/Type
Mon 02:03:25 PM 39.2000 -77.1333 23° Northeast 136 157 2,200  Level Potomac TRACON
Mon 02:08:27 PM 39.4167 -77.0167 27° Northeast 186 214 4,900 446 Climbing Potomac TRACON
Mon 02:09:28 PM 39.4667 -76.9833 38° Northeast 193 222 4,900  Level Potomac TRACON
Mon 02:10:29 PM 39.5000 -76.9500 49° Northeast 189 217 4,900  Level Potomac TRACON
Mon 02:11:29 PM 39.5333 -76.9000 27° Northeast 187 215 4,900  Level Potomac TRACON
Mon 02:12:30 PM 39.5833 -76.8667 40° Northeast 190 219 4,900  Level Potomac TRACON
Mon 02:19:32 PM 39.8154 -76.6119 40° Northeast  Level FlightAware
Mon 02:20:32 PM 39.8483 -76.5755 31° Northeast  Level FlightAware
Mon 02:21:32 PM 39.8850 -76.5467 50° Northeast  Level FlightAware
Mon 02:22:32 PM 39.9125 -76.5042 40° Northeast  Level FlightAware
Mon 02:23:32 PM 39.9454 -76.4678 45° Northeast  Level FlightAware
Mon 02:24:32 PM 39.9753 -76.4287 41° Northeast  Level FlightAware
Mon 02:25:32 PM 40.0079 -76.3921 37° Northeast  Level FlightAware
Mon 02:26:32 PM 40.0422 -76.3578 37° Northeast  Level FlightAware
Mon 02:27:32 PM 40.0765 -76.3235 26° Northeast  Level FlightAware
Mon 02:28:32 PM 40.1153 -76.2989 83° East  Level Estimated
Mon 02:29:32 PM 40.1167 -76.2833 304° West  Level FlightAware
Mon 02:30:32 PM 40.1408 -76.3301 124° Southeast  Level Estimated
Mon 02:31:32 PM 40.1167 -76.2833 304° West  Level FlightAware
Mon 02:32:32 PM 40.1408 -76.3301 124° Southeast  Level Estimated
Mon 02:33:32 PM 40.1167 -76.2833 304° West  Level FlightAware
Mon 02:34:32 PM 40.1408 -76.3301 304° West  Level Estimated

Login

Don't have an account? Register now (free) for customized features, flight alerts, and more!